Data for 07/25/2014

Time Sea-Level Adjusted Pressure Absolute Pressure Temperature Relative Humidity Dew Point   
(mb) (inHg) (mb) (inHg) (C) (F) (%) (C) (F)
00:05 1020 30.12 850 25.1 11.9 53.5 51 2.1 35.9
00:10 1020 30.12 850 25.1 11.7 53.1 52 2.2 36
00:15 1020 30.12 850 25.1 11.6 52.8 52 2.1 35.7
00:20 1020 30.12 850 25.1 11.5 52.7 52 2 35.6
00:25 1020 30.12 849 25.07 11.5 52.7 52 2 35.6
00:30 1020 30.12 849 25.07 11.5 52.6 51 1.7 35.1
00:35 1020 30.12 849 25.07 11.5 52.7 50 1.5 34.7
00:40 1020 30.12 849 25.07 11.6 52.9 49 1.3 34.3
00:45 1020 30.12 849 25.07 11.6 52.9 50 1.6 34.9
00:50 1020 30.12 849 25.07 11.4 52.5 50 1.5 34.8
00:55 1020 30.12 849 25.07 11.2 52.2 50 1.3 34.3
01:00 1020 30.12 849 25.07 11.2 52.2 51 1.5 34.6
01:05 1020 30.12 849 25.07 11 51.9 52 1.6 35
01:10 1020 30.12 849 25.07 10.8 51.4 52 1.5 34.7
01:15 1020 30.12 849 25.07 10.7 51.3 53 1.5 34.7
01:20 1020 30.12 849 25.07 10.6 51.1 53 1.4 34.6
01:25 1020 30.12 849 25.07 10.4 50.8 53 1.4 34.5
01:30 1020 30.12 849 25.07 10.3 50.5 54 1.3 34.4
01:35 1020 30.12 849 25.07 10.2 50.3 53 1.1 34
01:40 1020 30.12 849 25.07 10.1 50.2 54 1.2 34.2
01:45 1020 30.12 849 25.07 10 50 54 1.3 34.3
01:50 1020 30.12 849 25.07 9.8 49.7 54 1 33.8
01:55 1020 30.12 849 25.07 9.9 49.9 54 1.2 34.2
02:00 1020 30.12 849 25.07 9.9 49.8 55 1.2 34.2
02:05 1020 30.12 849 25.07 9.8 49.7 55 1.3 34.3
02:10 1020 30.12 849 25.07 9.8 49.6 54 1.1 33.9
02:15 1020 30.12 849 25.07 9.8 49.6 55 1.1 34
02:20 1020 30.12 849 25.07 9.7 49.4 54 0.9 33.7
02:25 1020 30.12 849 25.07 9.6 49.3 54 0.8 33.5
02:30 1020 30.12 849 25.07 9.5 49.1 57 1.5 34.6
02:35 1020 30.12 849 25.07 9.3 48.7 55 0.7 33.3
02:40 1020 30.12 849 25.07 9.3 48.7 55 0.8 33.4
02:45 1020 30.12 849 25.07 9.3 48.7 55 0.9 33.5
02:50 1020 30.12 849 25.07 9.2 48.6 58 1.5 34.7
02:55 1020 30.12 849 25.07 9 48.2 56 0.8 33.4
03:00 1020 30.12 849 25.07 9.1 48.3 55 0.6 33
03:05 1020 30.12 849 25.07 9.1 48.4 55 0.7 33.3
03:10 1020 30.12 849 25.07 9.1 48.3 56 0.8 33.4
03:15 1020 30.12 849 25.07 9 48.1 57 0.9 33.6
03:20 1020 30.12 849 25.07 8.8 47.8 57 0.7 33.3
03:25 1020 30.12 849 25.07 8.6 47.5 57 0.7 33.2
03:30 1020 30.12 849 25.07 8.6 47.5 58 0.8 33.4
03:35 1020 30.12 849 25.07 8.5 47.4 58 0.7 33.2
03:40 1020 30.12 849 25.07 8.6 47.5 57 0.5 32.9
03:45 1020 30.12 849 25.07 8.5 47.4 58 0.7 33.2
03:50 1020 30.12 849 25.07 8.4 47.1 57 0.5 32.8
03:55 1020 30.12 849 25.07 8.4 47.2 57 0.5 33
04:00 1020 30.12 849 25.07 8.4 47.1 58 0.6 33
04:05 1020 30.12 849 25.07 8.3 46.9 58 0.4 32.8
04:10 1020 30.12 849 25.07 8.2 46.7 59 0.6 33.1
04:15 1020 30.12 849 25.07 8 46.5 59 0.6 33.2
04:20 1020 30.12 849 25.07 8 46.3 59 0.6 33
04:25 1020 30.12 849 25.07 7.8 46.1 60 0.5 33
04:30 1020 30.12 849 25.07 7.8 46 59 0.4 32.7
04:35 1020 30.12 849 25.07 7.8 46 61 0.8 33.4
04:40 1020 30.12 850 25.1 7.5 45.5 62 0.8 33.4
04:45 1020 30.12 849 25.07 7.3 45.2 61 0.4 32.8
04:50 1020 30.12 850 25.1 7.3 45.2 63 0.7 33.3
04:55 1020 30.12 850 25.1 7.3 45.2 61 0.4 32.7
05:00 1021 30.15 850 25.1 7.4 45.4 62 0.6 33.1
05:05 1021 30.15 850 25.1 7.3 45.1 63 0.8 33.4
05:10 1021 30.15 850 25.1 7.2 45 62 0.5 33
05:15 1021 30.15 850 25.1 7.2 44.9 63 0.7 33.3
05:20 1021 30.15 850 25.1 7 44.6 63 0.4 32.7
05:25 1021 30.15 850 25.1 7.2 45 62 0.4 32.8
05:30 1021 30.15 850 25.1 7.4 45.2 62 0.7 33.2
05:35 1021 30.15 850 25.1 7.4 45.3 62 0.6 33.1
05:40 1021 30.15 850 25.1 7.5 45.6 61 0.4 32.8
05:45 1021 30.15 850 25.1 7.8 46 61 0.8 33.4
05:50 1021 30.15 850 25.1 7.9 46.2 60 0.8 33.4
05:55 1021 30.15 850 25.1 8.2 46.8 60 0.9 33.7
06:00 1021 30.15 850 25.1 8.4 47.1 59 0.9 33.6
06:05 1021 30.15 850 25.1 8.7 47.7 58 0.9 33.7
06:10 1021 30.15 850 25.1 8.7 47.7 60 1.4 34.4
06:15 1021 30.15 850 25.1 8.9 47.9 59 1.4 34.5
06:20 1021 30.15 850 25.1 9.4 48.8 59 1.8 35.2
06:25 1021 30.15 850 25.1 9.6 49.3 56 1.4 34.5
06:30 1021 30.15 850 25.1 10.2 50.4 55 1.6 34.9
06:35 1021 30.15 850 25.1 10.6 51 54 1.8 35.2
06:40 1021 30.15 850 25.1 11.1 52.1 51 1.4 34.5
06:45 1021 30.15 850 25.1 11.8 53.2 49 1.4 34.5
06:50 1021 30.15 850 25.1 12.1 53.9 47 1.4 34.4
06:55 1021 30.15 850 25.1 12.2 53.9 49 1.9 35.5
07:00 1021 30.15 850 25.1 12.3 54.1 49 2 35.6
07:05 1021 30.15 850 25.1 12.8 55 46 1.3 34.4
07:10 1021 30.15 850 25.1 13.5 56.4 43 1.4 34.6
07:15 1021 30.15 850 25.1 14.2 57.5 43 1.9 35.4
07:20 1021 30.15 850 25.1 14.6 58.2 37 0.3 32.5
07:25 1021 30.15 850 25.1 14.6 58.2 38 0.6 33.1
07:30 1021 30.15 850 25.1 15.1 59.1 37 0.6 33.1
07:35 1021 30.15 850 25.1 15.5 59.9 37 0.9 33.6
07:40 1021 30.15 850 25.1 15.4 59.7 37 0.9 33.6
07:45 1021 30.15 850 25.1 15.9 60.6 35 0.6 33.1
07:50 1021 30.15 850 25.1 15.8 60.5 34 0.1 32.1
07:55 1021 30.15 850 25.1 15.6 60.1 34 0 32.1
08:00 1021 30.15 850 25.1 16 60.7 34 0.3 32.5
08:05 1021 30.15 850 25.1 15.4 59.7 37 1 33.8
08:10 1021 30.15 850 25.1 15 58.9 38 0.8 33.4
08:15 1021 30.15 850 25.1 15.2 59.4 38 1.1 33.9
08:20 1021 30.15 850 25.1 15.5 59.8 37 0.8 33.4
08:25 1021 30.15 850 25.1 15.6 60.2 38 1.3 34.4
08:30 1021 30.15 850 25.1 15.6 60.1 35 0.4 32.8
08:35 1021 30.15 850 25.1 16.1 60.9 36 1 33.8
08:40 1020 30.12 850 25.1 16.5 61.6 33 0.4 32.8
08:45 1020 30.12 850 25.1 17.1 62.9 33 1 33.8
08:50 1020 30.12 850 25.1 17.7 63.9 32 0.8 33.4
08:55 1020 30.12 850 25.1 18.2 64.7 31 0.8 33.5
09:00 1020 30.12 850 25.1 18.2 64.7 32 1.4 34.4
09:05 1020 30.12 850 25.1 17.7 63.8 32 0.7 33.2
09:10 1020 30.12 850 25.1 17.7 63.8 31 0.5 32.9
09:15 1020 30.12 850 25.1 18 64.4 30 0.2 32.4
09:20 1020 30.12 849 25.07 17.8 64.1 30 0.2 32.3
09:25 1020 30.12 849 25.07 17.7 63.8 29 -0.2 31.6
09:30 1020 30.12 849 25.07 17.7 63.8 32 0.8 33.4
09:35 1020 30.12 849 25.07 18.3 64.9 29 0.2 32.3
09:40 1020 30.12 849 25.07 18.3 64.9 28 -0.2 31.6
09:45 1020 30.12 849 25.07 18.7 65.7 28 0.2 32.4
09:50 1020 30.12 849 25.07 18.9 66 30 1 33.8
09:55 1020 30.12 849 25.07 19 66.1 29 0.7 33.3
10:00 1020 30.12 849 25.07 18.8 65.9 30 1.1 34
10:05 1020 30.12 849 25.07 18.5 65.4 32 1.5 34.6
10:10 1020 30.12 849 25.07 18.5 65.3 31 1.2 34.1
10:15 1020 30.12 849 25.07 18.9 66 29 0.8 33.5
10:20 1020 30.12 849 25.07 19.3 66.7 28 0.3 32.5
10:25 1020 30.12 849 25.07 19.1 66.3 28 0.4 32.6
10:30 1020 30.12 849 25.07 19 66.3 28 0.5 32.8
10:35 1020 30.12 849 25.07 19.8 67.6 26 -0.1 31.9
10:40 1020 30.12 849 25.07 20.3 68.5 25 0 32
10:45 1020 30.12 849 25.07 20.3 68.5 26 0.5 32.9
10:50 1020 30.12 849 25.07 20.2 68.4 27 0.9 33.7
10:55 1019 30.09 849 25.07 19.7 67.4 27 0.4 32.8
11:00 1019 30.09 849 25.07 20.4 68.7 24 -0.5 31
11:05 1019 30.09 849 25.07 21.3 70.3 23 -0.7 30.7
11:10 1019 30.09 849 25.07 21.3 70.4 25 0.6 33
11:15 1019 30.09 849 25.07 21.2 70.2 24 0.1 32.3
11:20 1019 30.09 848 25.04 21 69.9 24 0.1 32.1
11:25 1019 30.09 848 25.04 20.9 69.7 25 0.3 32.6
11:30 1019 30.09 848 25.04 21.4 70.4 25 0.5 33
11:35 1019 30.09 848 25.04 21.8 71.2 23 -0.2 31.7
11:40 1019 30.09 848 25.04 22.2 71.9 23 0.5 33
11:45 1019 30.09 848 25.04 21.9 71.5 24 0.8 33.4
11:50 1019 30.09 848 25.04 21.9 71.5 23 0 32.1
11:55 1019 30.09 848 25.04 22 71.6 23 0.2 32.4
12:00 1019 30.09 848 25.04 22.7 72.8 22 0.3 32.6
12:05 1019 30.09 848 25.04 23 73.5 23 0.9 33.6
12:10 1019 30.09 848 25.04 22.9 73.3 22 0.4 32.7
12:15 1019 30.09 848 25.04 22.8 73 21 -0.7 30.8
12:20 1019 30.09 848 25.04 23.1 73.6 22 0.2 32.4
12:25 1019 30.09 848 25.04 23.4 74.1 21 0.3 32.6
12:30 1019 30.09 848 25.04 23.2 73.7 22 0.4 32.6
12:35 1019 30.09 848 25.04 23.4 74.2 21 0.4 32.7
12:40 1019 30.09 848 25.04 23.4 74.1 20 -0.9 30.3
12:45 1018 30.06 848 25.04 23.5 74.3 22 0.8 33.5
12:50 1018 30.06 848 25.04 23.3 74 21 0.3 32.5
12:55 1018 30.06 848 25.04 23.4 74 21 0 32.1
13:00 1018 30.06 848 25.04 23.1 73.6 22 0.4 32.8
13:05 1018 30.06 848 25.04 23.6 74.5 21 0.1 32.2
13:10 1018 30.06 848 25.04 24.1 75.4 21 1 33.7
13:15 1018 30.06 847 25.01 23.4 74.2 22 0.7 33.3
13:20 1018 30.06 847 25.01 23.6 74.5 21 0.1 32.2
13:25 1018 30.06 847 25.01 24.1 75.5 21 0.6 33
13:30 1018 30.06 847 25.01 24.4 75.9 20 0.5 32.9
13:35 1018 30.06 847 25.01 23.4 74.1 21 0.2 32.4
13:40 1018 30.06 847 25.01 23 73.4 20 -0.8 30.6
13:45 1018 30.06 847 25.01 24.2 75.5 19 -0.6 30.9
13:50 1018 30.06 847 25.01 24.7 76.4 19 -0.1 31.8
13:55 1018 30.06 847 25.01 25 76.9 19 0.3 32.5
14:00 1018 30.06 847 25.01 25.1 77.2 18 -0.7 30.7
14:05 1018 30.06 847 25.01 25.3 77.5 17 -1.4 29.5
14:10 1018 30.06 847 25.01 25.4 77.7 15 -2.6 27.3
14:15 1018 30.06 847 25.01 25.5 77.8 16 -2.1 28.1
14:20 1018 30.06 847 25.01 25.6 78.1 15 -2.4 27.6
14:25 1018 30.06 847 25.01 25.7 78.3 15 -2.7 27.1
14:30 1018 30.06 847 25.01 25.5 78 15 -2.7 27.1
14:35 1018 30.06 847 25.01 25.4 77.7 15 -3.1 26.4
14:40 1018 30.06 847 25.01 25.1 77.3 15 -3.2 26.2
14:45 1018 30.06 847 25.01 25.4 77.6 15 -2.8 26.9
14:50 1018 30.06 847 25.01 25.5 78 15 -3 26.5
14:55 1017 30.03 847 25.01 26.1 79 14 -2.9 26.7
15:00 1017 30.03 847 25.01 26.5 79.6 13 -3.4 25.8
15:05 1017 30.03 847 25.01 26.1 79 14 -3.5 25.8
15:10 1017 30.03 847 25.01 25.6 78.1 14 -3.9 24.9
15:15 1017 30.03 847 25.01 25.8 78.4 14 -3.8 25.1
15:20 1017 30.03 847 25.01 26.1 79 13 -3.9 24.9
15:25 1017 30.03 846 24.98 26.3 79.3 14 -3.5 25.7
15:30 1017 30.03 846 24.98 26.3 79.3 13 -4.6 23.8
15:35 1017 30.03 846 24.98 26.2 79.2 12 -5.1 22.8
15:40 1017 30.03 846 24.98 26.1 78.9 13 -4.6 23.7
15:45 1017 30.03 846 24.98 25.9 78.6 13 -4.5 23.9
15:50 1017 30.03 846 24.98 26.3 79.4 13 -4 24.8
15:55 1017 30.03 846 24.98 26.4 79.5 12 -4.8 23.3
16:00 1017 30.03 846 24.98 26 78.8 12 -5 23
16:05 1017 30.03 846 24.98 26.3 79.3 14 -3.5 25.6
16:10 1017 30.03 846 24.98 26.3 79.4 13 -4.3 24.3
16:15 1017 30.03 846 24.98 26.2 79.2 13 -4.1 24.6
16:20 1017 30.03 846 24.98 26.6 79.9 13 -4.1 24.6
16:25 1017 30.03 846 24.98 26.7 80.1 13 -3.9 24.9
16:30 1017 30.03 846 24.98 26.8 80.3 12 -4.3 24.2
16:35 1017 30.03 846 24.98 26.6 79.9 12 -4.6 23.7
16:40 1017 30.03 846 24.98 26.6 79.8 13 -3.5 25.7
16:45 1017 30.03 846 24.98 26.1 78.9 13 -4.2 24.5
16:50 1017 30.03 846 24.98 26.2 79.2 13 -4.4 24.1
16:55 1017 30.03 846 24.98 26.5 79.7 13 -4.3 24.2
17:00 1017 30.03 846 24.98 26.4 79.5 13 -4.1 24.6
17:05 1017 30.03 846 24.98 26.3 79.4 13 -4.2 24.4
17:10 1017 30.03 846 24.98 26.4 79.5 13 -4.1 24.6
17:15 1017 30.03 846 24.98 26.1 79 13 -4.2 24.4
17:20 1017 30.03 846 24.98 26.2 79.1 12 -4.7 23.5
17:25 1017 30.03 846 24.98 26.1 79 13 -4.3 24.3
17:30 1017 30.03 846 24.98 26 78.8 13 -4.3 24.3
17:35 1017 30.03 846 24.98 26 78.7 13 -4.7 23.6
17:40 1017 30.03 846 24.98 25.7 78.3 13 -4.5 23.8
17:45 1017 30.03 846 24.98 25.6 78.1 13 -4.9 23.2
17:50 1017 30.03 846 24.98 25.7 78.2 14 -4 24.8
17:55 1017 30.03 846 24.98 25.8 78.4 13 -4.2 24.5
18:00 1017 30.03 846 24.98 25.6 78.1 14 -3.7 25.4
18:05 1017 30.03 846 24.98 25.6 78 14 -3.8 25.2
18:10 1017 30.03 847 25.01 25.5 78 14 -3.6 25.5
18:15 1017 30.03 847 25.01 25.2 77.3 17 -1.6 29
18:20 1017 30.03 847 25.01 24.8 76.6 14 -3.9 24.9
18:25 1018 30.06 847 25.01 24.6 76.2 15 -3.5 25.6
18:30 1018 30.06 847 25.01 24.5 76 15 -3.5 25.7
18:35 1018 30.06 847 25.01 24.4 75.8 15 -3.3 26
18:40 1018 30.06 847 25.01 24.2 75.6 17 -1.9 28.6
18:45 1018 30.06 847 25.01 24 75.1 17 -2 28.3
18:50 1018 30.06 847 25.01 23.7 74.6 19 -1.4 29.5
18:55 1018 30.06 847 25.01 23.5 74.2 19 -1.3 29.6
19:00 1018 30.06 847 25.01 23.2 73.8 19 -1.7 29
19:05 1018 30.06 847 25.01 22.9 73.3 19 -1.4 29.5
19:10 1018 30.06 848 25.04 22.8 73 20 -1.4 29.5
19:15 1018 30.06 848 25.04 22.8 73 20 -1.4 29.6
19:20 1018 30.06 848 25.04 22.7 72.8 20 -1.5 29.3
19:25 1019 30.09 848 25.04 22.6 72.6 20 -1.4 29.6
19:30 1019 30.09 848 25.04 22.4 72.3 20 -1.2 29.9
19:35 1019 30.09 848 25.04 22.2 72 21 -0.8 30.5
19:40 1019 30.09 848 25.04 22 71.6 22 -0.7 30.8
19:45 1019 30.09 848 25.04 21.8 71.3 23 -0.3 31.5
19:50 1019 30.09 848 25.04 21.6 70.9 22 -0.7 30.8
19:55 1019 30.09 848 25.04 21.4 70.4 23 -0.3 31.4
20:00 1019 30.09 848 25.04 21.1 70.1 23 -0.3 31.4
20:05 1019 30.09 848 25.04 20.9 69.7 23 -0.9 30.4
20:10 1019 30.09 848 25.04 20.8 69.5 24 -0.6 30.9
20:15 1019 30.09 849 25.07 20.7 69.3 24 -0.5 31.2
20:20 1019 30.09 849 25.07 20.5 69 26 0.6 33.1
20:25 1020 30.12 849 25.07 20.4 68.7 24 -0.9 30.4
20:30 1020 30.12 849 25.07 20.3 68.6 24 -0.9 30.4
20:35 1020 30.12 849 25.07 20.2 68.3 24 -0.7 30.7
20:40 1020 30.12 849 25.07 20 68.1 25 -0.7 30.8
20:45 1020 30.12 849 25.07 19.8 67.6 25 -0.6 30.9
20:50 1020 30.12 849 25.07 19.7 67.4 26 -0.3 31.5
20:55 1020 30.12 849 25.07 19.5 67 26 -0.3 31.4
21:00 1020 30.12 849 25.07 19.3 66.7 27 -0.1 31.8
21:05 1020 30.12 850 25.1 19 66.2 28 0.2 32.4
21:10 1020 30.12 850 25.1 18.8 65.8 28 -0.1 31.8
21:15 1020 30.12 850 25.1 18.5 65.4 28 0 32.1
21:20 1021 30.15 850 25.1 18.3 65 28 -0.2 31.6
21:25 1021 30.15 850 25.1 18.1 64.6 29 0.1 32.2
21:30 1021 30.15 850 25.1 17.4 63.3 34 1.5 34.7
21:35 1021 30.15 850 25.1 16 60.9 35 0.7 33.3
21:40 1021 30.15 850 25.1 15.9 60.7 35 0.5 32.8
21:45 1021 30.15 850 25.1 16 60.9 35 0.7 33.3
21:50 1021 30.15 850 25.1 16 60.8 36 1 33.9
21:55 1021 30.15 850 25.1 16 60.9 35 0.7 33.2
22:00 1021 30.15 850 25.1 16.1 61 35 0.8 33.4
22:05 1021 30.15 850 25.1 16 60.7 38 1.7 35.1
22:10 1021 30.15 850 25.1 15.8 60.4 37 1.1 33.9
22:15 1021 30.15 850 25.1 15.6 60.1 36 0.7 33.3
22:20 1021 30.15 850 25.1 15.6 60.1 37 0.9 33.7
22:25 1021 30.15 850 25.1 15.5 60 36 0.8 33.5
22:30 1021 30.15 850 25.1 15.4 59.8 38 1.2 34.2
22:35 1021 30.15 850 25.1 15.2 59.4 39 1.3 34.3
22:40 1021 30.15 850 25.1 15.2 59.3 37 0.7 33.3
22:45 1021 30.15 851 25.13 15.4 59.7 36 0.6 33.1
22:50 1021 30.15 851 25.13 15.4 59.7 38 1.1 34
22:55 1021 30.15 851 25.13 15.1 59.2 38 1 33.9
23:00 1021 30.15 851 25.13 15.1 59.1 39 1.2 34.2
23:05 1021 30.15 851 25.13 14.9 58.7 40 1.5 34.7
23:10 1021 30.15 851 25.13 14.5 58.2 40 1.3 34.4
23:15 1021 30.15 851 25.13 14.5 58 41 1.5 34.8
23:20 1021 30.15 851 25.13 14.3 57.7 41 1.4 34.5
23:25 1021 30.15 851 25.13 14.2 57.5 43 1.7 35
23:30 1021 30.15 851 25.13 14 57.1 41 0.9 33.6
23:35 1021 30.15 851 25.13 13.9 57 43 1.6 34.9
23:40 1022 30.18 851 25.13 13.5 56.4 45 1.9 35.3
23:45 1022 30.18 851 25.13 13.1 55.6 46 1.8 35.2
23:50 1022 30.18 851 25.13 13 55.3 45 1.3 34.3
23:55 1022 30.18 851 25.13 13 55.4 45 1.6 34.8
24:00 1022 30.18 851 25.13 12.9 55.2 45 1.4 34.5